Time;durP1;ratioP1;P1;durP2;ratioP2;P2;SDS_P1;SDS_P2;PMS_P1;PMS_P2;Temp;Humidity;BMP_temperature;BMP_pressure;BME280_temperature;BME280_humidity;BME280_pressure;Samples;Min_cycle;Max_cycle;Signal;HPM_P1;HPM_P2
2022/11/23 00:01:18;;;;;;;7.90;5.38;;;;;;;12.45;64.87;99469.63;4900708;29;20053;-68
2022/11/23 00:03:47;;;;;;;13.88;5.63;;;;;;;12.45;64.88;99467.78;4931855;29;20048;-68
2022/11/23 00:06:15;;;;;;;13.90;5.88;;;;;;;12.46;64.50;99474.84;4919457;29;20038;-67
2022/11/23 00:08:41;;;;;;;19.42;5.90;;;;;;;12.47;64.62;99470.31;4938484;29;20039;-69
2022/11/23 00:11:08;;;;;;;14.07;6.05;;;;;;;12.49;64.74;99474.53;4938665;29;20048;-68
2022/11/23 00:13:35;;;;;;;12.25;6.05;;;;;;;12.51;64.76;99480.63;4938136;29;20099;-69
2022/11/23 00:16:06;;;;;;;12.13;6.32;;;;;;;12.51;64.76;99477.94;4936274;29;20047;-69
2022/11/23 00:18:33;;;;;;;16.63;6.10;;;;;;;12.53;64.60;99473.22;4905469;29;20570;-68
2022/11/23 00:21:05;;;;;;;12.10;5.45;;;;;;;12.53;64.64;99475.06;4921202;29;20407;-69
2022/11/23 00:23:31;;;;;;;13.38;5.53;;;;;;;12.54;64.55;99484.84;4938042;29;20062;-69
2022/11/23 00:25:58;;;;;;;16.50;6.45;;;;;;;12.53;64.78;99481.31;4919921;29;20045;-69
2022/11/23 00:28:25;;;;;;;11.07;5.68;;;;;;;12.53;64.79;99486.69;4919372;29;20058;-69
2022/11/23 00:30:51;;;;;;;11.82;5.47;;;;;;;12.53;64.50;99483.16;4918995;29;20447;-69
2022/11/23 00:33:18;;;;;;;10.73;5.55;;;;;;;12.53;64.76;99481.31;4918818;29;20044;-69
2022/11/23 00:35:44;;;;;;;14.25;5.88;;;;;;;12.52;64.45;99485.00;4918103;29;20051;-68
2022/11/23 00:38:11;;;;;;;14.48;5.97;;;;;;;12.52;64.71;99484.16;4919069;29;20047;-68
2022/11/23 00:40:37;;;;;;;12.25;5.63;;;;;;;12.50;64.66;99481.63;4919030;29;20048;-68
2022/11/23 00:43:04;;;;;;;14.32;5.07;;;;;;;12.50;64.42;99486.16;4918750;29;20044;-69
2022/11/23 00:45:31;;;;;;;15.07;5.78;;;;;;;12.51;64.57;99487.84;4913924;29;20107;-69
2022/11/23 00:47:58;;;;;;;13.00;5.45;;;;;;;12.52;64.51;99490.38;4937639;29;20035;-69
2022/11/23 00:50:24;;;;;;;11.25;5.05;;;;;;;12.54;64.43;99491.06;4920577;29;20054;-68
2022/11/23 00:52:51;;;;;;;11.85;4.82;;;;;;;12.55;64.41;99494.63;4920493;29;20103;-69
2022/11/23 00:55:18;;;;;;;12.88;5.30;;;;;;;12.55;64.68;99498.16;4924795;29;20467;-69
2022/11/23 00:57:45;;;;;;;11.77;4.63;;;;;;;12.55;64.66;99500.00;4901923;29;20063;-69
2022/11/23 01:00:11;;;;;;;13.82;5.03;;;;;;;12.56;64.66;99497.16;4918554;29;20127;-69
2022/11/23 01:02:39;;;;;;;15.25;4.70;;;;;;;12.56;64.62;99496.31;4901363;29;20143;-69
2022/11/23 01:05:05;;;;;;;13.80;4.35;;;;;;;12.57;64.45;99498.84;4894365;29;20052;-68
2022/11/23 01:07:32;;;;;;;7.90;4.00;;;;;;;12.56;64.45;99505.22;4937459;29;20120;-69
2022/11/23 01:09:59;;;;;;;12.55;4.55;;;;;;;12.54;64.21;99504.53;4936387;29;20397;-68
2022/11/23 01:12:28;;;;;;;13.80;4.68;;;;;;;12.53;64.61;99505.53;4920064;29;20044;-68
2022/11/23 01:14:54;;;;;;;13.07;3.95;;;;;;;12.52;64.54;99506.53;4882057;29;20392;-68
2022/11/23 01:17:21;;;;;;;11.60;4.07;;;;;;;12.54;64.61;99515.31;4899657;29;20096;-67
2022/11/23 01:19:47;;;;;;;12.02;3.28;;;;;;;12.54;64.43;99520.69;4882720;29;20496;-68
2022/11/23 01:22:14;;;;;;;13.65;3.45;;;;;;;12.54;64.22;99517.16;4882286;29;20117;-68
2022/11/23 01:24:41;;;;;;;11.40;3.40;;;;;;;12.54;64.48;99509.94;4915162;29;20040;-68
2022/11/23 01:27:07;;;;;;;12.65;3.35;;;;;;;12.54;64.51;99526.09;4918025;29;20100;-68
2022/11/23 01:29:34;;;;;;;14.25;3.80;;;;;;;12.56;64.09;99515.16;4918252;29;20054;-67
2022/11/23 01:32:01;;;;;;;11.73;3.58;;;;;;;12.57;64.20;99516.84;4917373;29;20040;-68
2022/11/23 01:34:27;;;;;;;7.47;2.67;;;;;;;12.56;64.10;99524.09;4918116;29;20044;-68
2022/11/23 01:36:57;;;;;;;13.80;3.42;;;;;;;12.55;64.09;99522.41;4900966;29;20096;-68
2022/11/23 01:39:26;;;;;;;10.50;3.45;;;;;;;12.56;64.42;99517.84;4917994;29;20044;-69
2022/11/23 01:41:53;;;;;;;12.23;3.83;;;;;;;12.56;63.81;99525.94;4899139;29;20514;-68
2022/11/23 01:44:31;;;;;;;13.45;3.70;;;;;;;12.55;64.51;99516.16;4909536;29;20044;-68
2022/11/23 01:47:03;;;;;;;11.32;3.13;;;;;;;12.56;63.87;99524.09;4936541;29;20044;-68
2022/11/23 01:49:43;;;;;;;11.35;3.45;;;;;;;12.56;64.00;99526.78;4936684;29;20103;-68
2022/11/23 01:52:23;;;;;;;10.35;2.83;;;;;;;12.57;64.11;99525.78;4935148;29;20039;-69
2022/11/23 01:54:53;;;;;;;7.80;3.05;;;;;;;12.59;64.11;99533.72;4936605;29;20047;-69
2022/11/23 01:57:24;;;;;;;9.85;3.30;;;;;;;12.58;64.14;99538.25;4919518;29;20079;-69
2022/11/23 01:59:52;;;;;;;8.77;2.78;;;;;;;12.60;63.77;99536.25;4919397;29;20048;-69
2022/11/23 02:02:18;;;;;;;10.20;3.42;;;;;;;12.57;63.67;99536.56;4931073;29;20487;-68
2022/11/23 02:04:51;;;;;;;9.18;3.15;;;;;;;12.57;64.07;99533.00;4917272;29;20048;-69
2022/11/23 02:07:18;;;;;;;12.07;3.72;;;;;;;12.56;64.09;99540.25;4917451;29;20040;-68
2022/11/23 02:09:45;;;;;;;10.00;3.05;;;;;;;12.56;63.69;99540.25;4900687;29;20550;-67
2022/11/23 02:12:13;;;;;;;12.88;3.50;;;;;;;12.56;63.58;99542.09;4906988;29;20079;-68
2022/11/23 02:14:42;;;;;;;9.82;2.85;;;;;;;12.54;63.78;99553.00;4936529;29;20036;-67
2022/11/23 02:17:09;;;;;;;16.40;3.53;;;;;;;12.53;63.33;99540.56;4936398;29;20123;-68
2022/11/23 02:20:09;;;;;;;10.65;3.10;;;;;;;12.51;63.48;99549.78;4919131;29;20075;-68
2022/11/23 02:22:35;;;;;;;9.07;2.70;;;;;;;12.52;63.50;99552.31;4906284;29;20463;-68
2022/11/23 02:25:09;;;;;;;9.65;3.35;;;;;;;12.50;63.41;99553.47;4917175;29;20096;-69
2022/11/23 02:27:36;;;;;;;9.25;2.67;;;;;;;12.49;63.61;99558.00;4900267;29;20491;-68
2022/11/23 02:30:03;;;;;;;9.90;3.55;;;;;;;12.50;63.69;99548.94;4917809;29;20112;-68
2022/11/23 02:32:30;;;;;;;12.20;3.72;;;;;;;12.51;63.40;99547.09;4926930;29;20402;-68
2022/11/23 02:34:57;;;;;;;10.63;3.10;;;;;;;12.51;63.70;99552.47;4936255;29;20130;-67
2022/11/23 02:37:24;;;;;;;11.90;3.30;;;;;;;12.53;63.55;99545.94;4935953;29;20043;-67
2022/11/23 02:39:53;;;;;;;9.23;3.45;;;;;;;12.52;63.66;99555.00;4936292;29;20503;-68
2022/11/23 02:42:20;;;;;;;9.45;3.10;;;;;;;12.52;63.55;99556.88;4922684;29;20052;-67
2022/11/23 02:44:55;;;;;;;14.95;3.55;;;;;;;12.54;63.54;99552.16;4922937;29;20048;-67
2022/11/23 02:47:22;;;;;;;8.48;2.95;;;;;;;12.55;63.64;99556.56;4939968;29;20048;-68
2022/11/23 02:49:49;;;;;;;15.30;2.88;;;;;;;12.55;63.39;99551.16;4921468;29;20099;-68
2022/11/23 02:52:17;;;;;;;8.27;3.47;;;;;;;12.55;63.36;99553.88;4922616;29;20048;-68
2022/11/23 02:54:44;;;;;;;11.07;3.50;;;;;;;12.57;63.29;99549.16;4907792;29;20052;-69
2022/11/23 02:57:11;;;;;;;14.10;3.30;;;;;;;12.57;63.10;99558.09;4903805;29;20083;-68
2022/11/23 02:59:42;;;;;;;9.75;3.28;;;;;;;12.59;63.37;99561.47;4903833;29;20573;-69
2022/11/23 03:02:10;;;;;;;9.18;3.20;;;;;;;12.60;63.39;99555.09;4906893;29;20055;-68
2022/11/23 03:04:36;;;;;;;9.93;2.80;;;;;;;12.58;63.36;99553.56;4939642;29;20043;-68
2022/11/23 03:07:03;;;;;;;10.23;3.30;;;;;;;12.57;63.43;99560.78;4939532;29;20450;-68
2022/11/23 03:09:31;;;;;;;10.68;3.28;;;;;;;12.57;63.36;99557.25;4925795;29;20506;-68
2022/11/23 03:11:58;;;;;;;8.35;2.90;;;;;;;12.58;63.42;99557.09;4920391;29;20191;-68
2022/11/23 03:14:26;;;;;;;10.25;3.67;;;;;;;12.59;63.35;99560.63;4903477;29;20044;-68
2022/11/23 03:16:57;;;;;;;10.93;3.13;;;;;;;12.60;63.24;99563.19;4920647;29;20079;-67
2022/11/23 03:19:24;;;;;;;10.05;3.47;;;;;;;12.60;63.32;99563.19;4913532;29;20166;-67
2022/11/23 03:21:52;;;;;;;10.18;3.05;;;;;;;12.61;63.32;99569.41;4922310;29;20481;-67
2022/11/23 03:24:18;;;;;;;8.43;3.05;;;;;;;12.62;63.19;99563.88;4939340;29;20501;-67
2022/11/23 03:26:46;;;;;;;10.32;3.55;;;;;;;12.65;63.06;99560.06;4939371;29;20046;-68
2022/11/23 03:29:18;;;;;;;6.60;2.95;;;;;;;12.67;62.88;99561.59;4920859;29;20474;-67
2022/11/23 03:31:45;;;;;;;16.30;4.35;;;;;;;12.66;63.12;99564.44;4928706;29;20139;-68
2022/11/23 03:34:13;;;;;;;10.63;3.33;;;;;;;12.64;62.99;99564.59;4924063;29;20048;-68
2022/11/23 03:36:42;;;;;;;12.93;3.50;;;;;;;12.64;63.43;99575.38;4921896;29;20059;-68
2022/11/23 03:39:08;;;;;;;9.98;3.50;;;;;;;12.64;63.40;99571.84;4909812;29;20051;-68
2022/11/23 03:41:53;;;;;;;11.80;3.30;;;;;;;12.64;63.17;99564.59;4919998;29;20411;-68
2022/11/23 03:44:23;;;;;;;14.68;3.75;;;;;;;12.63;63.34;99573.69;4888196;29;20292;-68
2022/11/23 03:46:50;;;;;;;12.35;3.67;;;;;;;12.63;63.03;99567.41;4901842;29;20399;-68
2022/11/23 03:49:16;;;;;;;11.88;3.38;;;;;;;12.63;62.96;99576.38;4902918;29;20048;-67
2022/11/23 03:51:43;;;;;;;8.43;3.25;;;;;;;12.63;62.78;99575.50;4901337;29;20095;-69
2022/11/23 03:54:10;;;;;;;12.65;3.42;;;;;;;12.61;63.21;99575.66;4902625;29;20048;-68
2022/11/23 03:56:37;;;;;;;13.10;3.50;;;;;;;12.63;62.97;99578.19;4921378;29;20031;-69
2022/11/23 03:59:04;;;;;;;12.07;3.30;;;;;;;12.63;63.12;99581.75;4937806;29;20047;-68
2022/11/23 04:01:31;;;;;;;11.98;3.33;;;;;;;12.63;62.92;99579.06;4921655;29;20419;-68
2022/11/23 04:04:03;;;;;;;12.55;3.38;;;;;;;12.63;63.14;99581.75;4906458;29;20039;-68
2022/11/23 04:06:55;;;;;;;11.70;2.90;;;;;;;12.64;62.78;99583.44;4928547;29;20144;-69
2022/11/23 04:09:26;;;;;;;11.90;3.40;;;;;;;12.63;62.94;99581.75;4887733;29;20092;-69
2022/11/23 04:12:02;;;;;;;8.38;2.78;;;;;;;12.62;63.14;99585.41;4903763;29;20485;-68
2022/11/23 04:14:28;;;;;;;10.18;2.95;;;;;;;12.63;62.97;99581.75;4901903;29;20396;-69
2022/11/23 04:16:57;;;;;;;12.07;3.22;;;;;;;12.63;62.98;99588.97;4899267;29;20040;-69
2022/11/23 04:19:24;;;;;;;13.73;3.97;;;;;;;12.62;63.18;99592.66;4883575;29;20059;-69
2022/11/23 04:21:51;;;;;;;11.30;3.83;;;;;;;12.61;63.13;99588.25;4868042;29;20079;-68
2022/11/23 04:24:17;;;;;;;13.82;3.28;;;;;;;12.61;62.64;99583.72;4900506;29;20123;-68
2022/11/23 04:26:45;;;;;;;14.27;4.00;;;;;;;12.60;62.92;99579.34;4902286;29;20053;-68
2022/11/23 04:29:12;;;;;;;15.98;3.60;;;;;;;12.61;62.78;99577.50;4921080;29;20048;-69
2022/11/23 04:31:43;;;;;;;13.68;3.75;;;;;;;12.59;62.98;99576.78;4920914;29;20074;-69
2022/11/23 04:34:15;;;;;;;10.20;3.47;;;;;;;12.57;62.75;99578.78;4919918;29;20052;-70
2022/11/23 04:36:42;;;;;;;11.38;3.30;;;;;;;12.53;62.79;99583.63;4883420;29;20083;-68
2022/11/23 04:39:11;;;;;;;11.40;3.30;;;;;;;12.50;62.63;99586.63;4883343;29;20591;-69
2022/11/23 04:41:54;;;;;;;10.98;3.63;;;;;;;12.50;62.60;99583.09;4883141;29;20267;-68
2022/11/23 04:44:21;;;;;;;13.18;3.53;;;;;;;12.53;62.77;99588.19;4883429;29;20041;-70
2022/11/23 04:46:54;;;;;;;11.15;3.15;;;;;;;12.53;62.67;99580.09;4899021;29;20055;-69
2022/11/23 04:49:21;;;;;;;9.18;2.75;;;;;;;12.53;62.64;99583.63;4883363;29;20096;-68
2022/11/23 04:51:47;;;;;;;13.40;4.30;;;;;;;12.50;62.83;99586.63;4882855;29;20499;-68
2022/11/23 04:54:17;;;;;;;12.48;3.40;;;;;;;12.49;62.51;99584.94;4907802;29;20043;-68
2022/11/23 04:56:48;;;;;;;9.77;3.10;;;;;;;12.47;62.91;99584.25;4920650;29;20051;-68
2022/11/23 04:59:16;;;;;;;11.23;3.33;;;;;;;12.45;63.02;99570.09;4920454;29;20067;-68
2022/11/23 05:01:44;;;;;;;13.55;3.80;;;;;;;12.46;63.05;99571.78;4920257;29;20042;-68
2022/11/23 05:04:29;;;;;;;16.87;4.23;;;;;;;12.46;62.87;99587.09;4922931;29;20406;-68
2022/11/23 05:06:56;;;;;;;13.23;3.42;;;;;;;12.46;62.68;99573.63;4901578;29;20054;-67
2022/11/23 05:09:23;;;;;;;12.50;3.53;;;;;;;12.45;62.57;99574.63;4901712;29;20527;-69
2022/11/23 05:11:58;;;;;;;14.63;3.83;;;;;;;12.46;62.70;99570.94;4900996;29;20499;-68
2022/11/23 05:14:26;;;;;;;11.80;3.30;;;;;;;12.44;62.54;99571.09;4901275;29;20044;-67
2022/11/23 05:16:52;;;;;;;12.27;4.25;;;;;;;12.43;62.71;99566.69;4918325;29;20051;-67
2022/11/23 05:19:19;;;;;;;18.70;4.30;;;;;;;12.43;62.64;99574.78;4901206;29;20096;-67
2022/11/23 05:21:46;;;;;;;10.50;4.47;;;;;;;12.43;62.77;99573.94;4900613;29;20396;-68
2022/11/23 05:24:14;;;;;;;8.75;3.03;;;;;;;12.43;62.72;99577.47;4901177;29;20044;-68
2022/11/23 05:26:51;;;;;;;14.68;3.90;;;;;;;12.45;62.53;99582.72;4901439;29;20082;-69
2022/11/23 05:29:22;;;;;;;13.25;3.47;;;;;;;12.45;62.43;99591.63;4901129;29;20134;-68
2022/11/23 05:31:48;;;;;;;12.88;3.70;;;;;;;12.47;62.60;99588.78;4900660;29;20054;-68
2022/11/23 05:34:16;;;;;;;13.70;3.47;;;;;;;12.46;62.56;99574.47;4900930;29;20048;-69
2022/11/23 05:36:45;;;;;;;12.57;3.38;;;;;;;12.45;62.28;99583.56;4901319;29;20052;-68
2022/11/23 05:39:12;;;;;;;15.68;3.97;;;;;;;12.44;62.43;99586.41;4900819;29;20048;-68
2022/11/23 05:41:39;;;;;;;16.13;3.97;;;;;;;12.41;62.39;99587.56;4900169;29;20044;-68
2022/11/23 05:44:18;;;;;;;11.32;3.47;;;;;;;12.43;62.25;99582.84;4887067;29;20052;-69
2022/11/23 05:46:45;;;;;;;19.42;4.25;;;;;;;12.43;62.26;99584.69;4900791;29;20138;-68
2022/11/23 05:49:13;;;;;;;16.00;3.22;;;;;;;12.37;62.01;99592.38;4900718;29;20040;-69
2022/11/23 05:51:40;;;;;;;12.40;3.17;;;;;;;12.36;61.94;99589.84;4915820;29;20411;-69
2022/11/23 05:54:07;;;;;;;18.20;4.43;;;;;;;12.34;62.34;99589.16;4900562;29;20403;-69
2022/11/23 05:56:44;;;;;;;15.15;3.50;;;;;;;12.33;61.68;99590.16;4900861;29;20051;-68
2022/11/23 05:59:14;;;;;;;15.95;4.72;;;;;;;12.30;62.07;99590.44;4900311;29;20096;-68
2022/11/23 06:01:44;;;;;;;15.98;3.45;;;;;;;12.29;61.81;99589.59;4882112;29;20048;-68
2022/11/23 06:04:18;;;;;;;18.02;3.83;;;;;;;12.29;61.78;99586.06;4881814;29;20049;-69
2022/11/23 06:06:45;;;;;;;13.10;3.67;;;;;;;12.29;61.77;99589.59;4898625;29;20115;-69
2022/11/23 06:09:12;;;;;;;13.52;3.70;;;;;;;12.28;62.08;99592.44;4922564;29;20050;-68
2022/11/23 06:11:43;;;;;;;12.43;3.05;;;;;;;12.27;61.94;99585.38;4919944;29;20048;-69
2022/11/23 06:14:13;;;;;;;13.60;3.47;;;;;;;12.25;61.66;99585.53;4918607;29;20099;-69
2022/11/23 06:16:43;;;;;;;13.50;3.53;;;;;;;12.22;61.48;99585.81;4919307;29;20079;-68
2022/11/23 06:19:19;;;;;;;10.50;2.97;;;;;;;12.22;61.65;99591.19;4905707;29;20143;-68
2022/11/23 06:21:46;;;;;;;17.60;3.88;;;;;;;12.21;61.68;99585.97;4885043;29;20068;-68
2022/11/23 06:24:18;;;;;;;15.68;3.88;;;;;;;12.19;61.58;99588.81;4885965;29;20400;-68
2022/11/23 06:26:51;;;;;;;13.68;3.17;;;;;;;12.21;61.87;99594.03;4885859;29;20052;-68
2022/11/23 06:29:19;;;;;;;13.52;3.80;;;;;;;12.19;61.87;99593.34;4899351;29;20075;-68
2022/11/23 06:31:46;;;;;;;14.07;3.25;;;;;;;12.18;61.57;99589.81;4900058;29;20040;-68
2022/11/23 06:34:13;;;;;;;13.88;3.65;;;;;;;12.20;61.79;99592.34;4900105;29;20115;-68
2022/11/23 06:36:39;;;;;;;15.45;3.40;;;;;;;12.18;61.77;99594.34;4900140;29;20052;-68
2022/11/23 06:39:07;;;;;;;13.90;3.65;;;;;;;12.18;61.63;99599.72;4899420;29;20062;-68
2022/11/23 06:41:33;;;;;;;10.07;3.47;;;;;;;12.14;61.70;99593.78;4900031;29;20460;-68
2022/11/23 06:44:01;;;;;;;12.70;3.30;;;;;;;12.15;61.68;99600.03;4900138;29;20100;-68
2022/11/23 06:46:37;;;;;;;13.07;3.08;;;;;;;12.14;61.89;99592.94;4900218;29;20055;-68
2022/11/23 06:49:04;;;;;;;13.85;3.63;;;;;;;12.13;61.77;99591.25;4923894;29;20510;-68
2022/11/23 06:51:30;;;;;;;8.30;2.60;;;;;;;12.13;61.92;99604.72;4899410;29;20099;-68
2022/11/23 06:53:57;;;;;;;13.85;3.78;;;;;;;12.13;61.78;99602.88;4917452;29;20461;-68
2022/11/23 06:56:24;;;;;;;13.18;4.43;;;;;;;12.12;61.63;99605.72;4899876;29;20506;-69
2022/11/23 06:58:51;;;;;;;15.85;3.60;;;;;;;12.15;61.77;99611.63;4890207;29;20041;-67
2022/11/23 07:01:22;;;;;;;15.50;3.13;;;;;;;12.16;61.84;99613.34;4896900;29;20056;-67
2022/11/23 07:03:54;;;;;;;11.30;3.22;;;;;;;12.18;61.82;99618.56;4881114;29;20048;-67
2022/11/23 07:06:31;;;;;;;15.48;3.83;;;;;;;12.19;61.58;99631.03;4881534;29;20104;-68
2022/11/23 07:09:02;;;;;;;16.52;3.25;;;;;;;12.16;61.68;99624.09;4897985;29;20055;-68
2022/11/23 07:11:58;;;;;;;12.75;3.30;;;;;;;12.16;61.80;99628.63;4898828;29;20564;-67
2022/11/23 07:14:25;;;;;;;14.77;2.78;;;;;;;12.16;61.79;99629.47;4898669;29;20103;-68
2022/11/23 07:16:54;;;;;;;15.02;3.63;;;;;;;12.18;61.97;99632.03;4897598;29;20045;-68
2022/11/23 07:19:21;;;;;;;11.20;3.20;;;;;;;12.20;61.75;99632.72;4898750;29;20096;-68
2022/11/23 07:21:49;;;;;;;11.88;3.25;;;;;;;12.22;61.79;99638.81;4898250;29;20044;-67
2022/11/23 07:24:16;;;;;;;11.73;3.30;;;;;;;12.22;61.46;99639.66;4884282;29;20048;-67
2022/11/23 07:26:42;;;;;;;12.15;3.55;;;;;;;12.20;61.64;99641.66;4900575;29;20392;-67
2022/11/23 07:29:09;;;;;;;12.13;3.58;;;;;;;12.20;61.65;99646.19;4903281;29;20040;-68
2022/11/23 07:31:37;;;;;;;13.77;3.78;;;;;;;12.22;61.58;99653.13;4902925;29;20040;-67
2022/11/23 07:34:04;;;;;;;11.45;3.28;;;;;;;12.22;61.42;99652.25;4920031;29;20103;-68
2022/11/23 07:36:31;;;;;;;10.63;2.72;;;;;;;12.22;61.34;99660.34;4902232;29;20108;-72
2022/11/23 07:38:58;;;;;;;13.00;3.85;;;;;;;12.21;61.55;99651.41;4903135;29;20086;-72
2022/11/23 07:41:26;;;;;;;12.98;3.40;;;;;;;12.22;61.45;99665.72;4902505;29;20040;-68
2022/11/23 07:44:16;;;;;;;12.65;3.25;;;;;;;12.23;61.58;99662.03;4902936;29;20080;-66
2022/11/23 07:46:43;;;;;;;12.57;3.58;;;;;;;12.20;61.34;99657.78;4898969;29;20108;-67
2022/11/23 07:49:10;;;;;;;12.98;3.15;;;;;;;12.21;61.41;99672.09;4901021;29;20057;-67
2022/11/23 07:51:36;;;;;;;13.35;3.60;;;;;;;12.19;61.06;99661.47;4901065;29;20051;-67
2022/11/23 07:54:03;;;;;;;14.25;3.05;;;;;;;12.18;61.17;99675.94;4901064;29;20538;-67
2022/11/23 07:56:29;;;;;;;18.65;3.33;;;;;;;12.17;61.06;99670.69;4906931;29;20048;-68
2022/11/23 07:58:56;;;;;;;15.23;3.08;;;;;;;12.13;61.12;99680.06;4892399;29;20102;-67
2022/11/23 08:01:22;;;;;;;14.60;3.13;;;;;;;12.14;60.71;99671.84;4883993;29;20065;-67
2022/11/23 08:03:49;;;;;;;13.57;3.25;;;;;;;12.07;61.07;99679.66;4897971;29;20410;-67
2022/11/23 08:06:16;;;;;;;14.38;3.70;;;;;;;12.06;60.79;99675.28;4919280;29;20048;-66
2022/11/23 08:08:43;;;;;;;13.88;3.78;;;;;;;12.06;60.67;99667.19;4918963;29;20055;-67
2022/11/23 08:11:13;;;;;;;10.57;3.35;;;;;;;12.07;60.66;99678.81;4901790;29;20048;-66
2022/11/23 08:13:40;;;;;;;14.30;3.85;;;;;;;12.07;60.54;99676.97;4919248;29;20479;-67
2022/11/23 08:16:07;;;;;;;12.07;3.38;;;;;;;12.07;60.55;99681.50;4903186;29;20080;-67
2022/11/23 08:18:34;;;;;;;15.30;3.58;;;;;;;12.09;60.54;99674.97;4919408;29;20044;-68
2022/11/23 08:21:01;;;;;;;11.95;3.38;;;;;;;12.12;61.09;99687.28;4918938;29;20578;-67
2022/11/23 08:23:28;;;;;;;15.30;3.38;;;;;;;12.14;60.80;99681.75;4902074;29;20056;-67
2022/11/23 08:25:55;;;;;;;14.80;3.35;;;;;;;12.17;60.82;99685.00;4918276;29;20047;-67
2022/11/23 08:28:21;;;;;;;10.55;3.13;;;;;;;12.23;60.68;99688.94;4900386;29;20044;-66
2022/11/23 08:30:49;;;;;;;12.73;3.03;;;;;;;12.24;60.66;99693.34;4917023;29;20044;-68
2022/11/23 08:33:16;;;;;;;14.40;3.90;;;;;;;12.27;60.43;99695.75;4916824;29;20669;-66
2022/11/23 08:35:42;;;;;;;12.02;3.33;;;;;;;12.28;60.43;99687.50;4916997;29;20048;-67
2022/11/23 08:38:09;;;;;;;9.98;2.55;;;;;;;12.32;60.40;99691.59;4916258;29;20052;-68
2022/11/23 08:40:37;;;;;;;10.57;2.85;;;;;;;12.37;60.61;99691.16;4899719;29;20060;-67
2022/11/23 08:43:04;;;;;;;14.10;3.20;;;;;;;12.44;60.69;99691.41;4899823;29;20046;-67
2022/11/23 08:45:31;;;;;;;19.00;4.15;;;;;;;12.51;60.61;99697.91;4916986;29;20044;-67
2022/11/23 08:48:02;;;;;;;11.38;3.33;;;;;;;12.58;60.30;99697.16;4917740;29;20052;-67
2022/11/23 08:50:29;;;;;;;9.85;3.35;;;;;;;12.65;60.43;99698.28;4918846;29;20495;-66
2022/11/23 08:52:57;;;;;;;11.93;2.92;;;;;;;12.75;60.51;99703.59;4918652;29;20047;-66
2022/11/23 08:55:25;;;;;;;11.20;2.83;;;;;;;12.83;60.04;99698.31;4901580;29;20048;-67
2022/11/23 08:57:56;;;;;;;12.98;3.22;;;;;;;12.92;60.23;99701.94;4924391;29;20051;-66
2022/11/23 09:00:23;;;;;;;12.82;2.95;;;;;;;13.00;59.97;99702.88;4936141;29;20062;-66
2022/11/23 09:02:50;;;;;;;7.97;2.45;;;;;;;13.07;59.84;99702.25;4937412;29;20058;-66
2022/11/23 09:05:17;;;;;;;10.05;3.30;;;;;;;13.12;59.40;99699.97;4920339;29;20132;-66
2022/11/23 09:07:43;;;;;;;11.38;3.20;;;;;;;13.19;59.19;99703.78;4921533;29;20103;-66
2022/11/23 09:10:10;;;;;;;10.98;3.03;;;;;;;13.22;59.04;99701.63;4901014;29;20044;-66
2022/11/23 09:12:45;;;;;;;11.48;2.75;;;;;;;13.28;58.83;99702.84;4901948;29;20696;-66
2022/11/23 09:15:11;;;;;;;9.70;2.83;;;;;;;13.28;58.81;99697.44;4917983;29;20112;-66
2022/11/23 09:17:38;;;;;;;10.57;3.10;;;;;;;13.27;58.38;99699.31;4918263;29;20051;-66
2022/11/23 09:20:05;;;;;;;14.95;3.05;;;;;;;13.24;58.29;99694.22;4917945;29;20134;-66
2022/11/23 09:22:32;;;;;;;17.77;4.05;;;;;;;13.21;58.30;99691.81;4917892;29;20044;-65
2022/11/23 09:24:59;;;;;;;12.98;3.28;;;;;;;13.18;58.13;99689.44;4918034;29;20046;-66
2022/11/23 09:27:25;;;;;;;14.02;2.90;;;;;;;13.17;57.99;99692.28;4900015;29;20048;-66
2022/11/23 09:29:52;;;;;;;13.73;3.75;;;;;;;13.16;57.91;99683.31;4915360;29;20066;-66
2022/11/23 09:32:18;;;;;;;9.90;3.17;;;;;;;13.15;57.86;99691.56;4913547;29;20059;-66
2022/11/23 09:34:45;;;;;;;10.20;3.55;;;;;;;13.14;57.85;99679.94;4917521;29;20041;-66
2022/11/23 09:37:12;;;;;;;12.93;3.13;;;;;;;13.17;57.85;99678.81;4921219;29;20046;-66
2022/11/23 09:39:39;;;;;;;8.55;2.78;;;;;;;13.20;57.90;99683.91;4936745;29;20099;-66
2022/11/23 09:42:43;;;;;;;11.52;2.92;;;;;;;13.23;58.10;99683.59;4936477;29;20062;-66
2022/11/23 09:45:36;;;;;;;8.80;2.60;;;;;;;13.23;57.67;99681.72;4907921;29;20111;-67
2022/11/23 09:48:16;;;;;;;11.23;3.42;;;;;;;13.24;57.42;99686.13;4917488;29;20448;-66
2022/11/23 09:50:53;;;;;;;7.60;2.38;;;;;;;13.26;57.41;99688.66;4917528;29;20048;-66
2022/11/23 09:53:27;;;;;;;10.05;2.90;;;;;;;13.28;57.49;99683.97;4917389;29;20054;-67
2022/11/23 09:55:55;;;;;;;13.85;3.35;;;;;;;13.33;57.29;99676.25;4914785;29;20132;-66
2022/11/23 09:58:26;;;;;;;12.07;2.90;;;;;;;13.38;57.26;99673.09;4936548;29;20054;-66
2022/11/23 10:01:00;;;;;;;12.20;2.97;;;;;;;13.40;57.16;99674.66;4936686;29;20047;-67
2022/11/23 10:03:31;;;;;;;9.25;3.10;;;;;;;13.43;56.82;99662.72;4936239;29;20065;-66
2022/11/23 10:06:06;;;;;;;11.43;3.17;;;;;;;13.46;57.21;99667.81;4933553;29;20051;-66
2022/11/23 10:08:46;;;;;;;8.13;2.80;;;;;;;13.55;56.76;99664.16;4941128;29;20058;-66
2022/11/23 10:11:43;;;;;;;11.05;2.80;;;;;;;13.62;56.92;99652.59;4937066;29;20044;-68
2022/11/23 10:14:34;;;;;;;10.48;3.20;;;;;;;13.74;57.05;99644.25;4932363;29;20047;-67
2022/11/23 10:17:18;;;;;;;10.55;2.60;;;;;;;13.84;56.54;99642.28;4936258;29;20490;-66
2022/11/23 10:20:22;;;;;;;15.00;2.65;;;;;;;13.94;56.82;99629.53;4936347;29;20072;-66
2022/11/23 10:23:00;;;;;;;8.88;2.08;;;;;;;14.04;56.20;99618.59;4913745;29;20047;-68
2022/11/23 10:25:43;;;;;;;10.35;2.40;;;;;;;14.08;56.18;99620.81;4932349;29;20495;-67
2022/11/23 10:28:16;;;;;;;8.57;2.40;;;;;;;14.12;56.22;99610.53;4900304;29;20510;-67
2022/11/23 10:30:49;;;;;;;7.97;2.60;;;;;;;14.16;55.87;99618.19;4899938;29;20502;-67
2022/11/23 10:33:28;;;;;;;11.73;2.38;;;;;;;14.24;55.74;99614.69;4916857;29;20447;-67
2022/11/23 10:35:55;;;;;;;8.85;2.40;;;;;;;14.34;55.88;99609.16;4900064;29;20103;-67
2022/11/23 10:38:25;;;;;;;9.43;2.30;;;;;;;14.39;55.69;99602.25;4899434;29;20052;-67
2022/11/23 10:41:10;;;;;;;8.18;2.00;;;;;;;14.46;55.19;99606.00;4917300;29;20056;-66
2022/11/23 10:44:00;;;;;;;8.38;2.17;;;;;;;14.54;55.03;99602.50;4916989;29;20040;-67
2022/11/23 10:46:32;;;;;;;12.02;2.88;;;;;;;14.59;55.22;99597.44;4917126;29;20048;-67
2022/11/23 10:49:18;;;;;;;11.77;2.38;;;;;;;14.59;54.91;99603.69;4912755;29;20066;-67
2022/11/23 10:51:53;;;;;;;8.15;2.35;;;;;;;14.65;54.65;99604.03;4903202;29;20048;-67
2022/11/23 10:54:34;;;;;;;;;;;;;;;14.75;54.83;99602.03;4918970;29;20103;-67
2022/11/23 10:57:21;;;;;;;8.90;2.28;;;;;;;14.87;54.95;99596.16;4934603;29;20415;-67
2022/11/23 11:00:11;;;;;;;5.78;2.38;;;;;;;14.97;54.92;99596.00;4895064;29;20055;-67
2022/11/23 11:02:40;;;;;;;8.52;2.10;;;;;;;15.03;54.77;99595.34;4920469;29;20044;-66
2022/11/23 11:05:31;;;;;;;10.88;2.28;;;;;;;15.07;54.56;99591.28;4920564;29;20044;-68
2022/11/23 11:08:19;;;;;;;7.55;2.20;;;;;;;15.15;54.62;99583.16;4906088;29;20574;-67
2022/11/23 11:11:03;;;;;;;9.95;2.10;;;;;;;15.20;54.15;99580.81;4920222;29;20570;-68
2022/11/23 11:13:43;;;;;;;11.07;2.60;;;;;;;15.21;54.00;99585.19;4920343;29;20408;-67
2022/11/23 11:16:35;;;;;;;6.78;2.13;;;;;;;15.23;53.40;99585.88;4897012;29;20100;-67
2022/11/23 11:19:28;;;;;;;6.68;2.28;;;;;;;15.27;53.77;99580.97;4878203;29;20055;-68
2022/11/23 11:21:56;;;;;;;8.25;2.47;;;;;;;15.34;53.46;99575.72;4884326;29;20575;-67
2022/11/23 11:24:36;;;;;;;8.63;2.03;;;;;;;15.36;53.52;99585.38;4900977;29;20104;-67
2022/11/23 11:27:14;;;;;;;7.65;2.35;;;;;;;15.38;53.22;99580.63;4901067;29;20495;-67
2022/11/23 11:29:44;;;;;;;8.55;2.58;;;;;;;15.41;53.40;99574.03;4884283;29;20093;-67
2022/11/23 11:32:24;;;;;;;9.50;2.47;;;;;;;15.38;52.84;99566.25;4884029;29;20041;-68
2022/11/23 11:35:02;;;;;;;8.32;2.25;;;;;;;15.38;52.66;99568.97;4915847;29;20051;-67
2022/11/23 11:37:31;;;;;;;8.32;1.98;;;;;;;15.38;52.52;99577.91;4938949;29;20050;-68
2022/11/23 11:40:44;;;;;;;7.35;1.85;;;;;;;15.40;52.50;99565.06;4938504;29;20058;-67
2022/11/23 11:43:14;;;;;;;6.55;1.98;;;;;;;15.41;52.77;99564.06;4938713;29;20050;-67